createdAt,value
2023-05-01T00:00:47.856Z,40.26
2023-05-01T00:01:47.854Z,42.52
2023-05-01T00:02:48.010Z,39.51
2023-05-01T00:03:48.108Z,39.86
2023-05-01T00:04:47.991Z,36.50
2023-05-01T00:05:48.470Z,39.45
2023-05-01T00:06:48.271Z,38.49
2023-05-01T00:07:48.095Z,39.08
2023-05-01T00:08:48.098Z,39.73
2023-05-01T00:09:48.103Z,39.99
2023-05-01T00:10:48.384Z,38.60
2023-05-01T00:11:48.160Z,38.64
2023-05-01T00:12:48.240Z,37.78
2023-05-01T00:13:48.244Z,39.58
2023-05-01T00:14:48.234Z,37.57
2023-05-01T00:15:48.398Z,37.89
2023-05-01T00:16:48.520Z,38.90
2023-05-01T00:17:48.381Z,37.74
2023-05-01T00:18:48.423Z,36.65
2023-05-01T00:19:48.435Z,37.82
2023-05-01T00:20:48.480Z,38.45
2023-05-01T00:21:48.713Z,38.07
2023-05-01T00:22:48.526Z,36.00
2023-05-01T00:23:48.514Z,37.95
2023-05-01T00:24:48.570Z,36.19
2023-05-01T00:25:48.568Z,35.42
2023-05-01T00:26:48.580Z,36.87
2023-05-01T00:27:48.585Z,39.99
2023-05-01T00:28:48.648Z,35.94
2023-05-01T00:29:48.654Z,36.49
2023-05-01T00:30:48.669Z,36.65
2023-05-01T00:31:48.825Z,36.32
2023-05-01T00:32:48.789Z,38.07
2023-05-01T00:33:48.744Z,39.05
2023-05-01T00:34:48.737Z,38.16
2023-05-01T00:35:48.897Z,36.65
2023-05-01T00:36:50.035Z,37.37
2023-05-01T00:37:48.811Z,38.84
2023-05-01T00:38:48.817Z,37.03
2023-05-01T00:39:48.822Z,40.46
2023-05-01T00:40:48.887Z,35.39
2023-05-01T00:41:48.839Z,36.93
2023-05-01T00:42:48.846Z,39.11
2023-05-01T00:43:48.886Z,36.55
2023-05-01T00:44:48.841Z,38.71
2023-05-01T00:45:48.898Z,36.60
2023-05-01T00:46:48.851Z,38.19
2023-05-01T00:47:48.907Z,36.44
2023-05-01T00:48:48.856Z,36.29
2023-05-01T00:49:48.857Z,37.71
2023-05-01T00:50:48.820Z,39.28
2023-05-01T00:51:48.898Z,38.13
2023-05-01T00:52:48.828Z,36.42
2023-05-01T00:53:48.882Z,35.09
2023-05-01T00:54:48.895Z,35.61
2023-05-01T00:55:48.904Z,37.59
2023-05-01T00:56:48.896Z,38.45
2023-05-01T00:57:48.903Z,36.20
2023-05-01T00:58:48.895Z,36.01
2023-05-01T00:59:48.938Z,34.87
2023-05-01T01:00:48.956Z,38.69
2023-05-01T01:01:48.980Z,35.15
2023-05-01T01:02:49.005Z,34.99
2023-05-01T01:03:48.980Z,35.81
2023-05-01T01:04:49.131Z,34.84
2023-05-01T01:05:49.040Z,36.98
2023-05-01T01:06:49.210Z,36.08
2023-05-01T01:07:49.049Z,37.34
2023-05-01T01:08:49.126Z,38.02
2023-05-01T01:09:49.083Z,34.31
2023-05-01T01:10:49.139Z,35.98
2023-05-01T01:11:49.105Z,36.08
2023-05-01T01:12:49.109Z,39.82
2023-05-01T01:13:49.884Z,40.47
2023-05-01T01:14:49.118Z,34.69
2023-05-01T01:15:49.389Z,37.08
2023-05-01T01:16:49.370Z,37.41
2023-05-01T01:17:49.169Z,35.65
2023-05-01T01:18:49.109Z,35.92
2023-05-01T01:19:49.173Z,35.80
2023-05-01T01:20:49.162Z,36.01
2023-05-01T01:21:49.158Z,38.03
2023-05-01T01:22:49.150Z,37.28
2023-05-01T01:23:49.142Z,34.89
2023-05-01T01:24:49.154Z,34.48
2023-05-01T01:25:49.178Z,35.45
2023-05-01T01:26:49.136Z,33.89
2023-05-01T01:27:49.132Z,36.11
2023-05-01T01:28:49.156Z,35.63
2023-05-01T01:29:49.167Z,35.87
2023-05-01T01:30:49.189Z,36.79
2023-05-01T01:31:49.182Z,35.78
2023-05-01T01:32:49.170Z,34.33
2023-05-01T01:33:49.212Z,36.57
2023-05-01T01:34:49.121Z,36.29
2023-05-01T01:35:49.212Z,36.00
2023-05-01T01:36:49.155Z,34.04
2023-05-01T01:37:49.118Z,37.00
2023-05-01T01:38:49.120Z,37.92
2023-05-01T01:39:49.164Z,35.01
2023-05-01T01:40:49.096Z,35.37
2023-05-01T01:41:49.142Z,35.08
2023-05-01T01:42:49.106Z,34.36
2023-05-01T01:43:49.092Z,34.55
2023-05-01T01:44:49.213Z,38.04
2023-05-01T01:45:49.130Z,33.35
2023-05-01T01:46:49.172Z,34.83
2023-05-01T01:47:49.181Z,36.73
2023-05-01T01:48:49.100Z,34.20
2023-05-01T01:49:49.090Z,36.42
2023-05-01T01:50:49.112Z,34.35
2023-05-01T01:51:49.110Z,34.75
2023-05-01T01:52:49.112Z,36.22
2023-05-01T01:53:49.122Z,34.74
2023-05-01T01:54:49.105Z,35.56
2023-05-01T01:55:49.450Z,35.27
2023-05-01T01:56:49.072Z,33.58
2023-05-01T01:57:49.089Z,37.29
2023-05-01T01:58:49.100Z,35.34
2023-05-01T01:59:49.111Z,36.13
2023-05-01T02:00:49.080Z,36.18
2023-05-01T02:01:49.178Z,37.14
2023-05-01T02:02:49.246Z,35.77
2023-05-01T02:03:49.216Z,37.16
2023-05-01T02:04:49.149Z,36.19
2023-05-01T02:05:49.416Z,34.44
2023-05-01T02:06:49.195Z,35.13
2023-05-01T02:07:49.110Z,36.51
2023-05-01T02:08:49.116Z,36.50
2023-05-01T02:09:49.111Z,35.50
2023-05-01T02:10:49.441Z,35.88
2023-05-01T02:11:49.109Z,35.17
2023-05-01T02:12:49.174Z,34.26
2023-05-01T02:13:49.129Z,34.65
2023-05-01T02:14:49.120Z,33.43
2023-05-01T02:15:49.485Z,34.70
2023-05-01T02:16:49.100Z,34.52
2023-05-01T02:17:49.129Z,34.58
2023-05-01T02:18:49.108Z,33.18
2023-05-01T02:19:49.108Z,36.50
2023-05-01T02:20:49.210Z,35.44
2023-05-01T02:21:49.139Z,35.29
2023-05-01T02:22:49.128Z,36.35
2023-05-01T02:23:49.125Z,37.00
2023-05-01T02:24:49.122Z,31.79
2023-05-01T02:25:49.441Z,33.14
2023-05-01T02:26:49.151Z,33.94
2023-05-01T02:27:49.149Z,35.23
2023-05-01T02:28:49.164Z,31.36
2023-05-01T02:29:49.172Z,33.35
2023-05-01T02:30:49.423Z,35.57
2023-05-01T02:31:49.206Z,34.78
2023-05-01T02:32:49.159Z,35.59
2023-05-01T02:33:49.126Z,31.85
2023-05-01T02:34:49.133Z,37.35
2023-05-01T02:35:49.453Z,31.84
2023-05-01T02:36:49.142Z,34.86
2023-05-01T02:37:49.146Z,35.15
2023-05-01T02:38:49.141Z,36.02
2023-05-01T02:39:49.169Z,32.64
2023-05-01T02:40:49.438Z,32.89
2023-05-01T02:41:49.179Z,33.72
2023-05-01T02:42:49.191Z,32.18
2023-05-01T02:43:49.156Z,33.47
2023-05-01T02:44:49.150Z,33.34
2023-05-01T02:45:49.279Z,33.62
2023-05-01T02:46:49.213Z,34.85
2023-05-01T02:47:49.148Z,30.20
2023-05-01T02:48:49.198Z,32.05
2023-05-01T02:49:49.204Z,33.80
2023-05-01T02:50:49.205Z,35.15
2023-05-01T02:51:49.163Z,34.50
2023-05-01T02:52:49.166Z,33.81
2023-05-01T02:53:49.193Z,31.70
2023-05-01T02:54:49.174Z,32.11
2023-05-01T02:55:49.492Z,33.52
2023-05-01T02:56:49.184Z,35.25
2023-05-01T02:57:49.155Z,32.35
2023-05-01T02:58:49.120Z,36.13
2023-05-01T02:59:49.162Z,32.94
2023-05-01T03:00:49.172Z,30.49
2023-05-01T03:01:49.184Z,33.13
2023-05-01T03:02:49.222Z,34.38
2023-05-01T03:03:49.159Z,32.27
2023-05-01T03:04:49.291Z,34.42
2023-05-01T03:05:49.128Z,32.80
2023-05-01T03:06:49.279Z,35.61
2023-05-01T03:07:49.178Z,32.87
2023-05-01T03:08:49.152Z,32.36
2023-05-01T03:09:49.184Z,32.26
2023-05-01T03:10:49.137Z,32.12
2023-05-01T03:11:49.145Z,32.81
2023-05-01T03:12:49.153Z,30.61
2023-05-01T03:13:49.110Z,31.71
2023-05-01T03:14:49.122Z,31.23
2023-05-01T03:15:49.448Z,32.01
2023-05-01T03:16:49.224Z,32.08
2023-05-01T03:17:49.168Z,32.67
2023-05-01T03:18:49.134Z,31.57
2023-05-01T03:19:49.151Z,34.09
2023-05-01T03:20:49.449Z,33.95
2023-05-01T03:21:49.103Z,32.09
2023-05-01T03:22:49.110Z,34.08
2023-05-01T03:23:49.147Z,31.45
2023-05-01T03:24:49.131Z,30.36
2023-05-01T03:25:49.104Z,29.56
2023-05-01T03:26:49.154Z,33.07
2023-05-01T03:27:49.157Z,30.84
2023-05-01T03:28:49.126Z,34.21
2023-05-01T03:29:49.085Z,31.71
2023-05-01T03:30:49.474Z,31.67
2023-05-01T03:31:49.139Z,33.67
2023-05-01T03:32:49.205Z,31.09
2023-05-01T03:33:49.128Z,29.51
2023-05-01T03:34:49.129Z,32.24
2023-05-01T03:35:49.251Z,31.15
2023-05-01T03:36:49.161Z,30.65
2023-05-01T03:37:49.168Z,32.72
2023-05-01T03:38:49.121Z,31.14
2023-05-01T03:39:49.139Z,31.59
2023-05-01T03:40:49.513Z,29.47
2023-05-01T03:41:49.145Z,32.39
2023-05-01T03:42:49.145Z,33.73
2023-05-01T03:43:49.168Z,32.06
2023-05-01T03:44:49.142Z,32.57
2023-05-01T03:45:49.185Z,32.77
2023-05-01T03:46:49.149Z,33.90
2023-05-01T03:47:49.184Z,35.28
2023-05-01T03:48:49.141Z,32.71
2023-05-01T03:49:49.196Z,30.55
2023-05-01T03:50:49.120Z,29.60
2023-05-01T03:51:49.129Z,31.79
2023-05-01T03:52:49.167Z,30.47
2023-05-01T03:53:49.134Z,31.20
2023-05-01T03:54:49.133Z,30.61
2023-05-01T03:55:49.143Z,30.05
2023-05-01T03:56:49.150Z,28.78
2023-05-01T03:57:49.195Z,30.47
2023-05-01T03:58:49.214Z,32.20
2023-05-01T03:59:49.169Z,32.36
2023-05-01T04:00:49.193Z,32.58
2023-05-01T04:01:49.481Z,32.08
2023-05-01T04:02:49.470Z,30.87
2023-05-01T04:03:49.366Z,33.48
2023-05-01T04:04:49.187Z,32.79
2023-05-01T04:05:49.201Z,32.48
2023-05-01T04:06:49.357Z,30.54
2023-05-01T04:07:49.151Z,33.96
2023-05-01T04:08:49.175Z,33.22
2023-05-01T04:09:49.180Z,30.17
2023-05-01T04:10:49.230Z,28.34
2023-05-01T04:11:49.212Z,32.34
2023-05-01T04:12:49.232Z,33.44
2023-05-01T04:13:49.205Z,32.02
2023-05-01T04:14:49.267Z,29.86
2023-05-01T04:15:49.278Z,28.72
2023-05-01T04:16:49.290Z,32.90
2023-05-01T04:17:49.283Z,30.19
2023-05-01T04:18:49.275Z,32.51
2023-05-01T04:19:49.211Z,31.43
2023-05-01T04:20:49.293Z,35.32
2023-05-01T04:21:49.260Z,31.47
2023-05-01T04:22:49.321Z,30.34
2023-05-01T04:23:49.296Z,27.44
2023-05-01T04:24:49.286Z,32.66
2023-05-01T04:25:49.168Z,29.25
2023-05-01T04:26:49.194Z,29.38
2023-05-01T04:27:49.222Z,33.33
2023-05-01T04:28:49.232Z,32.32
2023-05-01T04:29:49.202Z,28.05
2023-05-01T04:30:49.213Z,30.60
2023-05-01T04:31:49.361Z,28.90
2023-05-01T04:32:49.213Z,35.16
2023-05-01T04:33:49.243Z,32.89
2023-05-01T04:34:49.196Z,31.98
2023-05-01T04:35:49.213Z,31.15
2023-05-01T04:36:49.214Z,33.99
2023-05-01T04:37:49.216Z,32.51
2023-05-01T04:38:49.248Z,32.22
2023-05-01T04:39:49.252Z,28.85
2023-05-01T04:40:49.187Z,32.86
2023-05-01T04:41:49.258Z,30.97
2023-05-01T04:42:49.273Z,32.38
2023-05-01T04:43:49.216Z,30.59
2023-05-01T04:44:49.203Z,30.26
2023-05-01T04:45:49.195Z,33.60
2023-05-01T04:46:49.302Z,32.27
2023-05-01T04:47:49.249Z,31.77
2023-05-01T04:48:49.229Z,33.94
2023-05-01T04:49:49.243Z,35.05
2023-05-01T04:50:49.255Z,31.42
2023-05-01T04:51:49.208Z,33.19
2023-05-01T04:52:49.229Z,31.82
2023-05-01T04:53:49.226Z,24.62
2023-05-01T04:54:49.241Z,24.50
2023-05-01T04:55:49.244Z,25.00
2023-05-01T04:56:49.269Z,27.26
2023-05-01T04:57:49.293Z,25.00
2023-05-01T04:58:49.318Z,27.75
2023-05-01T04:59:49.301Z,25.00
2023-05-01T05:00:49.387Z,29.25
2023-05-01T05:01:49.354Z,25.00
2023-05-01T05:02:49.409Z,25.79
2023-05-01T05:03:50.295Z,24.85
2023-05-01T05:04:49.397Z,27.83
2023-05-01T05:05:49.398Z,30.17
2023-05-01T05:06:49.470Z,25.90
2023-05-01T05:07:49.424Z,26.34
2023-05-01T05:08:49.457Z,27.14
2023-05-01T05:09:49.487Z,25.00
2023-05-01T05:10:49.493Z,25.91
2023-05-01T05:11:49.540Z,30.17
2023-05-01T05:12:49.672Z,25.19
2023-05-01T05:13:49.681Z,26.07
2023-05-01T05:14:49.700Z,28.19
2023-05-01T05:15:49.684Z,30.31
2023-05-01T05:16:50.197Z,30.25
2023-05-01T05:17:49.867Z,25.00
2023-05-01T05:18:49.766Z,30.14
2023-05-01T05:19:49.757Z,27.83
2023-05-01T05:20:49.805Z,27.90
2023-05-01T05:21:49.921Z,35.41
2023-05-01T05:22:49.849Z,30.19
2023-05-01T05:23:49.936Z,29.43
2023-05-01T05:24:49.943Z,34.93
2023-05-01T05:25:49.965Z,30.22
2023-05-01T05:26:50.007Z,29.69
2023-05-01T05:27:50.022Z,25.00
2023-05-01T05:28:50.065Z,38.57
2023-05-01T05:29:50.109Z,34.90
2023-05-01T05:30:50.182Z,27.20
2023-05-01T05:31:50.186Z,30.53
2023-05-01T05:32:50.255Z,26.88
2023-05-01T05:33:50.230Z,31.07
2023-05-01T05:34:50.316Z,32.34
2023-05-01T05:35:50.321Z,30.54
2023-05-01T05:36:50.356Z,25.05
2023-05-01T05:37:50.354Z,31.01
2023-05-01T05:38:50.413Z,31.02
2023-05-01T05:39:50.447Z,28.92
2023-05-01T05:40:50.504Z,35.37
2023-05-01T05:41:50.591Z,31.67
2023-05-01T05:42:50.583Z,32.05
2023-05-01T05:43:50.626Z,27.16
2023-05-01T05:44:50.607Z,38.38
2023-05-01T05:45:50.684Z,38.98
2023-05-01T05:46:50.734Z,36.11
2023-05-01T05:47:50.761Z,32.74
2023-05-01T05:48:50.793Z,32.22
2023-05-01T05:49:50.818Z,35.58
2023-05-01T05:50:50.861Z,31.52
2023-05-01T05:51:50.868Z,32.34
2023-05-01T05:52:50.951Z,35.90
2023-05-01T05:53:50.957Z,33.58
2023-05-01T05:54:50.987Z,34.35
2023-05-01T05:55:51.073Z,36.51
2023-05-01T05:56:51.086Z,31.06
2023-05-01T05:57:51.115Z,40.68
2023-05-01T05:58:51.149Z,31.00
2023-05-01T05:59:51.207Z,32.83
2023-05-01T06:00:51.212Z,28.60
2023-05-01T06:01:51.325Z,27.27
2023-05-01T06:02:51.398Z,37.02
2023-05-01T06:03:51.356Z,44.80
2023-05-01T06:04:51.368Z,37.07
2023-05-01T06:05:51.428Z,37.51
2023-05-01T06:06:51.564Z,25.94
2023-05-01T06:07:51.498Z,33.57
2023-05-01T06:08:51.538Z,37.52
2023-05-01T06:09:51.581Z,38.64
2023-05-01T06:10:51.628Z,36.85
2023-05-01T06:11:51.665Z,33.81
2023-05-01T06:12:56.302Z,30.05
2023-05-01T06:13:52.690Z,30.30
2023-05-01T06:14:51.723Z,28.95
2023-05-01T06:15:51.686Z,31.75
2023-05-01T06:16:51.628Z,31.25
2023-05-01T06:17:51.687Z,45.23
2023-05-01T06:18:51.682Z,39.29
2023-05-01T06:19:51.651Z,38.73
2023-05-01T06:20:51.638Z,42.31
2023-05-01T06:21:51.691Z,42.08
2023-05-01T06:22:51.600Z,39.50
2023-05-01T06:23:51.616Z,45.94
2023-05-01T06:24:51.614Z,41.42
2023-05-01T06:25:51.692Z,31.08
2023-05-01T06:26:51.624Z,31.98
2023-05-01T06:27:51.656Z,34.57
2023-05-01T06:28:51.731Z,44.76
2023-05-01T06:29:51.727Z,49.03
2023-05-01T06:30:51.758Z,43.43
2023-05-01T06:31:51.887Z,37.21
2023-05-01T06:32:51.888Z,35.89
2023-05-01T06:33:51.879Z,40.34
2023-05-01T06:34:51.920Z,46.55
2023-05-01T06:35:51.952Z,34.34
2023-05-01T06:36:51.959Z,39.97
2023-05-01T06:37:52.010Z,47.47
2023-05-01T06:38:52.046Z,44.03
2023-05-01T06:39:52.098Z,47.32
2023-05-01T06:40:52.094Z,47.72
2023-05-01T06:41:52.532Z,44.19
2023-05-01T06:42:52.185Z,37.55
2023-05-01T06:43:52.219Z,44.92
2023-05-01T06:44:53.006Z,38.83
2023-05-01T06:45:52.275Z,41.80
2023-05-01T06:46:52.549Z,42.72
2023-05-01T06:47:52.358Z,38.31
2023-05-01T06:48:52.320Z,42.39
2023-05-01T06:49:52.405Z,49.25
2023-05-01T06:50:52.410Z,48.10
2023-05-01T06:51:52.466Z,41.66
2023-05-01T06:52:52.477Z,48.58
2023-05-01T06:53:52.530Z,45.20
2023-05-01T06:54:52.538Z,42.20
2023-05-01T06:55:52.579Z,53.53
2023-05-01T06:56:52.618Z,37.30
2023-05-01T06:57:52.659Z,40.70
2023-05-01T06:58:52.675Z,34.02
2023-05-01T06:59:52.744Z,27.83
2023-05-01T07:00:52.806Z,39.61
2023-05-01T07:01:52.861Z,50.48
2023-05-01T07:02:52.907Z,55.30
2023-05-01T07:03:52.794Z,54.45
2023-05-01T07:04:52.872Z,43.91
2023-05-01T07:05:52.852Z,51.49
2023-05-01T07:06:53.023Z,54.69
2023-05-01T07:08:01.237Z,50.16
2023-05-01T07:08:53.920Z,48.90
2023-05-01T07:09:52.897Z,50.75
2023-05-01T07:10:52.911Z,51.29
2023-05-01T07:11:52.920Z,58.01
2023-05-01T07:12:52.929Z,52.91
2023-05-01T07:13:52.879Z,54.43
2023-05-01T07:14:52.893Z,54.73
2023-05-01T07:15:54.442Z,43.48
2023-05-01T07:16:52.961Z,54.77
2023-05-01T07:17:53.162Z,62.42
2023-05-01T07:18:52.827Z,51.66
2023-05-01T07:19:52.829Z,55.58
2023-05-01T07:20:52.802Z,46.51
2023-05-01T07:21:52.839Z,45.84
2023-05-01T07:22:52.806Z,47.28
2023-05-01T07:23:52.833Z,58.83
2023-05-01T07:24:52.896Z,57.90
2023-05-01T07:25:52.911Z,57.82
2023-05-01T07:26:52.924Z,47.51
2023-05-01T07:27:52.953Z,56.08
2023-05-01T07:28:52.987Z,48.69
2023-05-01T07:29:52.991Z,48.45
2023-05-01T07:30:53.115Z,48.50
2023-05-01T07:31:53.094Z,51.38
2023-05-01T07:32:53.572Z,50.24
2023-05-01T07:33:54.255Z,56.69
2023-05-01T07:34:53.181Z,52.58
2023-05-01T07:35:53.191Z,58.92
2023-05-01T07:36:53.228Z,55.00
2023-05-01T07:37:53.262Z,56.50
2023-05-01T07:38:53.296Z,58.75
2023-05-01T07:39:53.342Z,55.20
2023-05-01T07:40:53.331Z,52.20
2023-05-01T07:41:53.351Z,60.83
2023-05-01T07:42:54.554Z,51.65
2023-05-01T07:43:53.437Z,54.86
2023-05-01T07:44:53.441Z,62.07
2023-05-01T07:45:53.487Z,64.84
2023-05-01T07:46:53.500Z,62.71
2023-05-01T07:47:53.585Z,64.63
2023-05-01T07:48:53.552Z,57.74
2023-05-01T07:49:53.624Z,58.16
2023-05-01T07:50:53.584Z,65.87
2023-05-01T07:51:53.617Z,60.88
2023-05-01T07:52:54.073Z,68.83
2023-05-01T07:53:53.706Z,64.19
2023-05-01T07:54:53.747Z,56.29
2023-05-01T07:55:53.729Z,53.12
2023-05-01T07:56:53.768Z,63.48
2023-05-01T07:57:54.015Z,60.35
2023-05-01T07:58:53.811Z,56.10
2023-05-01T07:59:54.051Z,59.44
2023-05-01T08:00:53.826Z,63.04
2023-05-01T08:01:53.917Z,68.58
2023-05-01T08:02:54.037Z,72.00
2023-05-01T08:03:54.070Z,69.79
2023-05-01T08:04:54.074Z,73.88
2023-05-01T08:05:53.950Z,70.82
2023-05-01T08:06:54.054Z,60.07
2023-05-01T08:07:54.047Z,57.72
2023-05-01T08:08:54.018Z,70.00
2023-05-01T08:09:54.162Z,72.63
2023-05-01T08:10:54.047Z,75.29
2023-05-01T08:11:54.080Z,75.51
2023-05-01T08:12:54.152Z,76.75
2023-05-01T08:13:54.113Z,78.02
2023-05-01T08:14:54.137Z,79.09
2023-05-01T08:15:54.228Z,78.55
2023-05-01T08:16:54.188Z,72.57
2023-05-01T08:17:54.219Z,74.69
2023-05-01T08:18:54.226Z,78.29
2023-05-01T08:19:54.412Z,77.47
2023-05-01T08:20:54.250Z,86.27
2023-05-01T08:21:54.283Z,80.88
2023-05-01T08:22:54.280Z,82.34
2023-05-01T08:23:54.269Z,87.01
2023-05-01T08:24:54.298Z,77.22
2023-05-01T08:25:54.315Z,77.20
2023-05-01T08:26:54.310Z,80.59
2023-05-01T08:27:54.357Z,81.12
2023-05-01T08:28:54.364Z,73.66
2023-05-01T08:29:54.676Z,77.79
2023-05-01T08:30:54.390Z,80.46
2023-05-01T08:31:54.405Z,82.97
2023-05-01T08:32:54.656Z,83.13
2023-05-01T08:33:54.427Z,84.38
2023-05-01T08:34:54.428Z,74.33
2023-05-01T08:35:54.462Z,73.11
2023-05-01T08:36:54.461Z,76.67
2023-05-01T08:37:54.466Z,78.24
2023-05-01T08:38:54.507Z,79.19
2023-05-01T08:39:54.632Z,78.06
2023-05-01T08:40:54.563Z,68.50
2023-05-01T08:41:54.607Z,70.71
2023-05-01T08:42:54.582Z,72.67
2023-05-01T08:43:54.579Z,73.53
2023-05-01T08:44:54.613Z,74.35
2023-05-01T08:45:54.626Z,72.07
2023-05-01T08:46:54.706Z,61.62
2023-05-01T08:47:55.219Z,71.86
2023-05-01T08:48:54.672Z,78.23
2023-05-01T08:49:54.783Z,66.17
2023-05-01T08:50:54.708Z,69.69
2023-05-01T08:51:54.714Z,54.55
2023-05-01T08:52:55.076Z,62.50
2023-05-01T08:53:54.724Z,65.82
2023-05-01T08:54:54.755Z,63.60
2023-05-01T08:55:54.781Z,62.24
2023-05-01T08:56:54.795Z,58.60
2023-05-01T08:57:54.789Z,64.19
2023-05-01T08:58:54.804Z,67.16
2023-05-01T08:59:55.033Z,65.78
2023-05-01T09:00:54.877Z,66.17
2023-05-01T09:01:54.829Z,63.89
2023-05-01T09:02:54.864Z,70.35
2023-05-01T09:03:54.896Z,58.19
2023-05-01T09:04:54.849Z,65.93
2023-05-01T09:05:54.859Z,55.26
2023-05-01T09:06:54.870Z,71.05
2023-05-01T09:07:54.876Z,58.58
2023-05-01T09:08:54.873Z,62.11
2023-05-01T09:09:55.038Z,71.83
2023-05-01T09:10:54.870Z,68.58
2023-05-01T09:11:54.899Z,60.56
2023-05-01T09:12:54.887Z,73.66
2023-05-01T09:13:54.895Z,71.82
2023-05-01T09:14:54.889Z,69.25
2023-05-01T09:15:55.047Z,65.75
2023-05-01T09:16:55.062Z,67.06
2023-05-01T09:17:55.197Z,74.20
2023-05-01T09:18:55.005Z,71.66
2023-05-01T09:19:55.093Z,69.59
2023-05-01T09:20:55.020Z,61.60
2023-05-01T09:21:54.972Z,57.35
2023-05-01T09:22:55.064Z,56.59
2023-05-01T09:23:55.009Z,59.85
2023-05-01T09:24:54.991Z,61.46
2023-05-01T09:25:55.055Z,58.86
2023-05-01T09:26:55.564Z,61.51
2023-05-01T09:27:55.067Z,69.89
2023-05-01T09:28:55.012Z,70.29
2023-05-01T09:29:55.250Z,68.78
2023-05-01T09:30:55.034Z,62.26
2023-05-01T09:31:55.102Z,60.80
2023-05-01T09:32:55.147Z,52.21
2023-05-01T09:33:55.135Z,53.52
2023-05-01T09:34:55.113Z,54.40
2023-05-01T09:35:55.160Z,51.41
2023-05-01T09:36:55.119Z,48.62
2023-05-01T09:37:55.131Z,47.15
2023-05-01T09:38:55.150Z,63.45
2023-05-01T09:39:55.276Z,49.55
2023-05-01T09:40:55.143Z,70.92
2023-05-01T09:41:55.118Z,67.35
2023-05-01T09:42:55.113Z,58.51
2023-05-01T09:43:55.131Z,54.30
2023-05-01T09:44:55.469Z,62.70
2023-05-01T09:45:55.197Z,72.04
2023-05-01T09:46:55.134Z,63.92
2023-05-01T09:47:55.210Z,58.05
2023-05-01T09:48:55.175Z,70.46
2023-05-01T09:49:55.401Z,67.15
2023-05-01T09:50:55.223Z,65.97
2023-05-01T09:51:55.194Z,58.83
2023-05-01T09:52:55.245Z,56.17
2023-05-01T09:53:55.197Z,70.63
2023-05-01T09:54:55.260Z,77.71
2023-05-01T09:55:55.295Z,76.01
2023-05-01T09:56:55.251Z,68.25
2023-05-01T09:57:55.274Z,65.28
2023-05-01T09:58:55.244Z,73.97
2023-05-01T09:59:55.455Z,65.54
2023-05-01T10:00:55.244Z,74.77
2023-05-01T10:01:55.370Z,87.83
2023-05-01T10:02:55.539Z,88.14
2023-05-01T10:03:55.396Z,78.96
2023-05-01T10:04:55.268Z,76.42
2023-05-01T10:05:55.280Z,68.48
2023-05-01T10:06:55.422Z,75.29
2023-05-01T10:07:55.241Z,75.85
2023-05-01T10:08:55.253Z,80.73
2023-05-01T10:09:55.565Z,74.26
2023-05-01T10:10:55.222Z,74.43
2023-05-01T10:11:55.225Z,78.79
2023-05-01T10:12:55.709Z,87.52
2023-05-01T10:13:55.219Z,80.85
2023-05-01T10:14:55.215Z,74.85
2023-05-01T10:15:55.219Z,81.40
2023-05-01T10:16:55.246Z,78.15
2023-05-01T10:17:55.348Z,72.42
2023-05-01T10:18:55.241Z,75.55
2023-05-01T10:19:55.461Z,87.68
2023-05-01T10:20:55.225Z,74.10
2023-05-01T10:21:55.177Z,76.19
2023-05-01T10:22:55.231Z,80.79
2023-05-01T10:23:55.263Z,69.21
2023-05-01T10:24:55.225Z,76.88
2023-05-01T10:25:55.204Z,81.36
2023-05-01T10:26:55.216Z,85.09
2023-05-01T10:27:55.217Z,83.10
2023-05-01T10:28:55.199Z,72.42
2023-05-01T10:29:55.371Z,81.62
2023-05-01T10:30:55.243Z,86.57
2023-05-01T10:31:55.284Z,84.21
2023-05-01T10:32:55.592Z,80.29
2023-05-01T10:33:55.155Z,80.38
2023-05-01T10:34:55.525Z,82.18
2023-05-01T10:35:55.227Z,82.88
2023-05-01T10:36:55.171Z,74.27
2023-05-01T10:37:55.204Z,80.17
2023-05-01T10:38:55.199Z,85.89
2023-05-01T10:39:55.209Z,79.00
2023-05-01T10:40:55.201Z,79.26
2023-05-01T10:41:55.244Z,86.04
2023-05-01T10:42:55.201Z,82.91
2023-05-01T10:43:55.180Z,76.85
2023-05-01T10:44:55.429Z,71.21
2023-05-01T10:45:55.269Z,72.84
2023-05-01T10:46:55.333Z,71.31
2023-05-01T10:47:55.247Z,69.20
2023-05-01T10:48:55.170Z,67.60
2023-05-01T10:49:55.167Z,57.54
2023-05-01T10:50:55.200Z,54.80
2023-05-01T10:51:55.176Z,54.46
2023-05-01T10:52:55.176Z,46.34
2023-05-01T10:53:55.189Z,56.83
2023-05-01T10:54:55.344Z,68.96
2023-05-01T10:55:55.165Z,51.88
2023-05-01T10:56:55.174Z,56.17
2023-05-01T10:57:55.177Z,60.03
2023-05-01T10:58:55.179Z,60.29
2023-05-01T10:59:55.189Z,55.73
2023-05-01T11:00:55.169Z,65.74
2023-05-01T11:01:55.200Z,60.74
2023-05-01T11:02:55.221Z,66.71
2023-05-01T11:03:55.215Z,70.21
2023-05-01T11:04:55.283Z,71.34
2023-05-01T11:05:55.185Z,75.31
2023-05-01T11:06:55.177Z,87.01
2023-05-01T11:07:55.178Z,78.66
2023-05-01T11:08:55.156Z,68.26
2023-05-01T11:09:55.346Z,85.48
2023-05-01T11:10:55.177Z,87.14
2023-05-01T11:11:55.166Z,93.29
2023-05-01T11:12:55.135Z,87.64
2023-05-01T11:13:55.215Z,86.19
2023-05-01T11:14:55.321Z,90.77
2023-05-01T11:15:55.262Z,98.38
2023-05-01T11:16:55.317Z,95.96
2023-05-01T11:17:55.257Z,95.83
2023-05-01T11:18:55.338Z,95.91
2023-05-01T11:19:55.317Z,102.91
2023-05-01T11:20:55.336Z,98.08
2023-05-01T11:21:55.354Z,103.25
2023-05-01T11:22:55.359Z,98.17
2023-05-01T11:23:55.387Z,99.44
2023-05-01T11:24:55.612Z,101.65
2023-05-01T11:25:55.487Z,93.76
2023-05-01T11:26:55.474Z,101.81
2023-05-01T11:27:55.536Z,101.13
2023-05-01T11:28:55.534Z,105.68
2023-05-01T11:29:55.605Z,102.44
2023-05-01T11:30:55.616Z,95.44
2023-05-01T11:31:55.749Z,94.68
2023-05-01T11:32:55.700Z,97.29
2023-05-01T11:33:55.732Z,105.01
2023-05-01T11:34:56.082Z,107.86
2023-05-01T11:35:55.856Z,97.03
2023-05-01T11:36:55.817Z,98.61
2023-05-01T11:37:55.915Z,110.32
2023-05-01T11:38:55.803Z,103.59
2023-05-01T11:39:55.861Z,106.87
2023-05-01T11:40:55.837Z,95.02
2023-05-01T11:41:55.945Z,102.12
2023-05-01T11:42:55.885Z,103.14
2023-05-01T11:43:55.956Z,103.21
2023-05-01T11:44:56.189Z,102.77
2023-05-01T11:45:56.065Z,104.84
2023-05-01T11:46:55.970Z,109.24
2023-05-01T11:47:56.055Z,95.84
2023-05-01T11:48:56.019Z,106.49
2023-05-01T11:49:56.022Z,106.41
2023-05-01T11:50:56.057Z,98.63
2023-05-01T11:51:56.104Z,103.24
2023-05-01T11:52:56.148Z,104.86
2023-05-01T11:53:56.180Z,106.78
2023-05-01T11:54:56.201Z,106.31
2023-05-01T11:55:56.197Z,107.49
2023-05-01T11:56:56.310Z,107.20
2023-05-01T11:57:56.340Z,112.61
2023-05-01T11:58:56.362Z,107.47
2023-05-01T11:59:56.363Z,112.74
2023-05-01T12:00:56.414Z,117.76
2023-05-01T12:01:56.477Z,117.15
2023-05-01T12:02:56.593Z,113.96
2023-05-01T12:03:56.574Z,113.74
2023-05-01T12:04:56.876Z,113.68
2023-05-01T12:05:56.704Z,110.95
2023-05-01T12:06:56.710Z,110.17
2023-05-01T12:07:56.761Z,113.65
2023-05-01T12:08:56.816Z,109.61
2023-05-01T12:09:56.846Z,114.50
2023-05-01T12:10:56.910Z,121.99
2023-05-01T12:11:56.960Z,122.05
2023-05-01T12:12:57.105Z,112.48
2023-05-01T12:13:57.054Z,115.68
2023-05-01T12:14:57.223Z,118.16
2023-05-01T12:15:57.163Z,116.96
2023-05-01T12:16:57.223Z,115.10
2023-05-01T12:17:57.299Z,116.97
2023-05-01T12:18:57.275Z,119.41
2023-05-01T12:19:57.360Z,111.87
2023-05-01T12:20:57.366Z,111.68
2023-05-01T12:21:57.435Z,111.46
2023-05-01T12:22:57.487Z,118.86
2023-05-01T12:23:57.491Z,113.66
2023-05-01T12:24:57.720Z,118.64
2023-05-01T12:25:57.647Z,119.62
2023-05-01T12:26:57.646Z,116.21
2023-05-01T12:27:57.725Z,111.36
2023-05-01T12:28:57.805Z,113.51
2023-05-01T12:29:57.798Z,121.04
2023-05-01T12:30:57.847Z,120.69
2023-05-01T12:31:57.897Z,122.09
2023-05-01T12:32:58.027Z,121.97
2023-05-01T12:33:57.983Z,122.61
2023-05-01T12:34:58.225Z,117.39
2023-05-01T12:35:58.053Z,120.70
2023-05-01T12:36:58.110Z,112.33
2023-05-01T12:37:58.140Z,107.32
2023-05-01T12:38:58.178Z,113.90
2023-05-01T12:39:58.278Z,111.57
2023-05-01T12:40:58.246Z,119.21
2023-05-01T12:41:58.330Z,120.49
2023-05-01T12:42:58.376Z,121.43
2023-05-01T12:43:58.414Z,108.49
2023-05-01T12:44:58.865Z,110.43
2023-05-01T12:45:58.557Z,123.52
2023-05-01T12:46:58.523Z,121.52
2023-05-01T12:47:58.607Z,120.66
2023-05-01T12:48:58.592Z,116.79
2023-05-01T12:49:58.946Z,117.01
2023-05-01T12:50:58.695Z,113.01